sensor_id;sensor_type;location;lat;lon;timestamp;pressure;altitude;pressure_sealevel;temperature;humidity
48718;BME280;34521;33.042;-96.586;2023-03-30T00:00:39;100033.07;;;21.56;27.40
48718;BME280;34521;33.042;-96.586;2023-03-30T00:03:04;100034.40;;;19.21;30.69
48718;BME280;34521;33.042;-96.586;2023-03-30T00:05:29;100037.61;;;18.41;32.43
48718;BME280;34521;33.042;-96.586;2023-03-30T00:07:55;100042.29;;;18.00;33.34
48718;BME280;34521;33.042;-96.586;2023-03-30T00:10:20;100038.40;;;17.80;33.70
48718;BME280;34521;33.042;-96.586;2023-03-30T00:12:44;100033.08;;;17.88;33.67
48718;BME280;34521;33.042;-96.586;2023-03-30T00:15:12;100022.20;;;20.82;29.79
48718;BME280;34521;33.042;-96.586;2023-03-30T00:17:34;100023.96;;;21.23;28.86
48718;BME280;34521;33.042;-96.586;2023-03-30T00:20:00;100027.73;;;21.34;28.36
48718;BME280;34521;33.042;-96.586;2023-03-30T00:22:24;100029.49;;;21.59;27.82
48718;BME280;34521;33.042;-96.586;2023-03-30T00:24:49;100030.60;;;21.47;27.94
48718;BME280;34521;33.042;-96.586;2023-03-30T00:27:14;100029.56;;;21.47;27.97
48718;BME280;34521;33.042;-96.586;2023-03-30T00:29:40;100026.02;;;21.47;27.71
48718;BME280;34521;33.042;-96.586;2023-03-30T00:32:05;100023.65;;;21.53;27.65
48718;BME280;34521;33.042;-96.586;2023-03-30T00:34:30;100020.54;;;21.64;27.77
48718;BME280;34521;33.042;-96.586;2023-03-30T00:36:56;100021.95;;;21.86;27.62
48718;BME280;34521;33.042;-96.586;2023-03-30T00:39:20;100019.89;;;21.55;27.67
48718;BME280;34521;33.042;-96.586;2023-03-30T00:41:45;100017.68;;;21.71;27.76
48718;BME280;34521;33.042;-96.586;2023-03-30T00:46:35;100016.67;;;21.44;28.03
48718;BME280;34521;33.042;-96.586;2023-03-30T00:49:03;100009.57;;;21.19;28.10
48718;BME280;34521;33.042;-96.586;2023-03-30T00:51:25;100013.51;;;21.78;27.72
48718;BME280;34521;33.042;-96.586;2023-03-30T00:53:53;100013.99;;;21.56;28.01
48718;BME280;34521;33.042;-96.586;2023-03-30T00:56:18;100017.32;;;22.05;27.48
48718;BME280;34521;33.042;-96.586;2023-03-30T00:58:41;100020.45;;;21.39;27.87
48718;BME280;34521;33.042;-96.586;2023-03-30T01:01:08;100021.55;;;19.76;30.21
48718;BME280;34521;33.042;-96.586;2023-03-30T01:03:33;100027.10;;;18.54;32.72
48718;BME280;34521;33.042;-96.586;2023-03-30T01:05:57;100038.51;;;17.97;33.88
48718;BME280;34521;33.042;-96.586;2023-03-30T01:08:21;100040.08;;;18.00;34.21
48718;BME280;34521;33.042;-96.586;2023-03-30T01:10:46;100044.68;;;17.53;34.55
48718;BME280;34521;33.042;-96.586;2023-03-30T01:13:12;100038.01;;;19.78;31.68
48718;BME280;34521;33.042;-96.586;2023-03-30T01:15:41;100039.34;;;20.67;29.87
48718;BME280;34521;33.042;-96.586;2023-03-30T01:18:12;100035.87;;;21.38;28.77
48718;BME280;34521;33.042;-96.586;2023-03-30T01:20:42;100033.02;;;21.35;28.40
48718;BME280;34521;33.042;-96.586;2023-03-30T01:22:59;100033.65;;;21.33;28.40
48718;BME280;34521;33.042;-96.586;2023-03-30T01:27:56;100029.85;;;21.80;27.91
48718;BME280;34521;33.042;-96.586;2023-03-30T01:30:21;100029.19;;;21.49;27.94
48718;BME280;34521;33.042;-96.586;2023-03-30T01:32:48;100031.20;;;21.60;28.07
48718;BME280;34521;33.042;-96.586;2023-03-30T01:35:13;100035.24;;;21.55;27.82
48718;BME280;34521;33.042;-96.586;2023-03-30T01:39:54;100038.73;;;21.70;27.94
48718;BME280;34521;33.042;-96.586;2023-03-30T01:42:19;100040.22;;;21.75;27.64
48718;BME280;34521;33.042;-96.586;2023-03-30T01:44:42;100039.14;;;21.67;27.90
48718;BME280;34521;33.042;-96.586;2023-03-30T01:47:08;100036.53;;;21.48;28.07
48718;BME280;34521;33.042;-96.586;2023-03-30T01:49:30;100036.34;;;21.90;27.69
48718;BME280;34521;33.042;-96.586;2023-03-30T01:52:00;100034.23;;;21.97;27.56
48718;BME280;34521;33.042;-96.586;2023-03-30T01:54:21;100036.70;;;21.31;28.21
48718;BME280;34521;33.042;-96.586;2023-03-30T01:56:46;100041.72;;;21.32;27.96
48718;BME280;34521;33.042;-96.586;2023-03-30T01:59:13;100039.66;;;21.56;27.72
48718;BME280;34521;33.042;-96.586;2023-03-30T02:01:34;100045.96;;;18.69;31.96
48718;BME280;34521;33.042;-96.586;2023-03-30T02:03:58;100051.62;;;18.00;33.62
48718;BME280;34521;33.042;-96.586;2023-03-30T02:06:28;100053.05;;;17.81;34.29
48718;BME280;34521;33.042;-96.586;2023-03-30T02:08:48;100058.82;;;17.95;34.51
48718;BME280;34521;33.042;-96.586;2023-03-30T02:11:13;100060.16;;;17.77;34.55
48718;BME280;34521;33.042;-96.586;2023-03-30T02:13:39;100052.10;;;20.27;30.39
48718;BME280;34521;33.042;-96.586;2023-03-30T02:16:07;100050.66;;;20.82;29.63
48718;BME280;34521;33.042;-96.586;2023-03-30T02:18:28;100047.43;;;21.50;28.78
48718;BME280;34521;33.042;-96.586;2023-03-30T02:20:53;100043.24;;;21.43;28.78
48718;BME280;34521;33.042;-96.586;2023-03-30T02:23:20;100046.97;;;21.41;28.24
48718;BME280;34521;33.042;-96.586;2023-03-30T02:25:44;100047.92;;;21.32;28.28
48718;BME280;34521;33.042;-96.586;2023-03-30T02:28:09;100049.85;;;21.47;28.14
48718;BME280;34521;33.042;-96.586;2023-03-30T02:30:35;100050.15;;;21.72;27.81
48718;BME280;34521;33.042;-96.586;2023-03-30T02:32:59;100050.60;;;21.24;28.05
48718;BME280;34521;33.042;-96.586;2023-03-30T02:35:40;100051.45;;;21.53;28.01
48718;BME280;34521;33.042;-96.586;2023-03-30T02:38:05;100050.32;;;21.83;27.67
48718;BME280;34521;33.042;-96.586;2023-03-30T02:40:24;100052.35;;;21.61;27.89
48718;BME280;34521;33.042;-96.586;2023-03-30T02:42:48;100050.77;;;21.62;27.86
48718;BME280;34521;33.042;-96.586;2023-03-30T02:45:16;100048.12;;;21.76;27.71
48718;BME280;34521;33.042;-96.586;2023-03-30T02:47:35;100050.42;;;21.73;27.72
48718;BME280;34521;33.042;-96.586;2023-03-30T02:49:58;100047.45;;;21.64;27.83
48718;BME280;34521;33.042;-96.586;2023-03-30T02:52:27;100047.28;;;21.41;28.04
48718;BME280;34521;33.042;-96.586;2023-03-30T02:54:49;100044.97;;;21.40;28.04
48718;BME280;34521;33.042;-96.586;2023-03-30T02:57:11;100042.67;;;21.62;27.83
48718;BME280;34521;33.042;-96.586;2023-03-30T02:59:39;100041.63;;;19.31;30.76
48718;BME280;34521;33.042;-96.586;2023-03-30T03:02:05;100045.22;;;17.65;33.60
48718;BME280;34521;33.042;-96.586;2023-03-30T03:04:26;100044.02;;;17.90;34.39
48718;BME280;34521;33.042;-96.586;2023-03-30T03:06:50;100047.01;;;17.55;34.93
48718;BME280;34521;33.042;-96.586;2023-03-30T03:09:15;100046.58;;;17.49;35.07
48718;BME280;34521;33.042;-96.586;2023-03-30T03:11:40;100035.92;;;19.76;31.55
48718;BME280;34521;33.042;-96.586;2023-03-30T03:14:05;100033.16;;;20.65;30.07
48718;BME280;34521;33.042;-96.586;2023-03-30T03:16:29;100026.82;;;21.29;28.98
48718;BME280;34521;33.042;-96.586;2023-03-30T03:18:55;100026.83;;;21.15;28.78
48718;BME280;34521;33.042;-96.586;2023-03-30T03:21:20;100030.02;;;21.15;28.47
48718;BME280;34521;33.042;-96.586;2023-03-30T03:23:46;100027.44;;;21.12;28.45
48718;BME280;34521;33.042;-96.586;2023-03-30T03:26:10;100024.45;;;21.73;28.05
48718;BME280;34521;33.042;-96.586;2023-03-30T03:28:35;100014.14;;;21.27;28.25
48718;BME280;34521;33.042;-96.586;2023-03-30T03:31:00;100003.97;;;21.38;28.10
48718;BME280;34521;33.042;-96.586;2023-03-30T03:33:25;100002.62;;;21.53;27.66
48718;BME280;34521;33.042;-96.586;2023-03-30T03:35:50;100003.54;;;21.89;27.48
48718;BME280;34521;33.042;-96.586;2023-03-30T03:38:15;100012.36;;;21.56;27.79
48718;BME280;34521;33.042;-96.586;2023-03-30T03:40:40;100012.73;;;21.39;27.98
48718;BME280;34521;33.042;-96.586;2023-03-30T03:43:05;100012.70;;;21.50;27.89
48718;BME280;34521;33.042;-96.586;2023-03-30T03:45:31;100013.70;;;21.88;27.49
48718;BME280;34521;33.042;-96.586;2023-03-30T03:47:56;100009.34;;;21.45;27.91
48718;BME280;34521;33.042;-96.586;2023-03-30T03:50:20;100002.47;;;21.42;27.90
48718;BME280;34521;33.042;-96.586;2023-03-30T03:52:46;99993.87;;;21.16;28.18
48718;BME280;34521;33.042;-96.586;2023-03-30T03:55:11;99988.78;;;21.39;27.93
48718;BME280;34521;33.042;-96.586;2023-03-30T03:57:36;99991.24;;;20.16;29.44
48718;BME280;34521;33.042;-96.586;2023-03-30T04:00:01;99992.12;;;18.19;32.67
48718;BME280;34521;33.042;-96.586;2023-03-30T04:02:26;99999.81;;;17.57;33.97
48718;BME280;34521;33.042;-96.586;2023-03-30T04:04:51;99998.57;;;17.42;34.56
48718;BME280;34521;33.042;-96.586;2023-03-30T04:07:16;100001.74;;;17.62;34.71
48718;BME280;34521;33.042;-96.586;2023-03-30T04:09:41;99997.49;;;18.97;32.81
48718;BME280;34521;33.042;-96.586;2023-03-30T04:12:07;99992.24;;;20.79;30.08
48718;BME280;34521;33.042;-96.586;2023-03-30T04:14:31;99986.67;;;21.00;29.16
48718;BME280;34521;33.042;-96.586;2023-03-30T04:16:56;99983.19;;;21.31;28.52
48718;BME280;34521;33.042;-96.586;2023-03-30T04:19:22;99978.67;;;21.00;28.51
48718;BME280;34521;33.042;-96.586;2023-03-30T04:21:47;99975.18;;;21.19;28.25
48718;BME280;34521;33.042;-96.586;2023-03-30T04:24:11;99970.86;;;21.30;28.14
48718;BME280;34521;33.042;-96.586;2023-03-30T04:26:36;99968.33;;;21.16;28.23
48718;BME280;34521;33.042;-96.586;2023-03-30T04:29:01;99971.78;;;21.56;27.80
48718;BME280;34521;33.042;-96.586;2023-03-30T04:31:27;99969.69;;;21.45;27.87
48718;BME280;34521;33.042;-96.586;2023-03-30T04:33:51;99965.88;;;21.22;28.07
48718;BME280;34521;33.042;-96.586;2023-03-30T04:36:17;99962.35;;;21.54;27.73
48718;BME280;34521;33.042;-96.586;2023-03-30T04:38:42;99962.34;;;21.64;27.65
48718;BME280;34521;33.042;-96.586;2023-03-30T04:41:07;99962.51;;;21.32;27.95
48718;BME280;34521;33.042;-96.586;2023-03-30T04:43:32;99959.20;;;21.14;27.87
48718;BME280;34521;33.042;-96.586;2023-03-30T04:45:57;99952.21;;;21.35;27.86
48718;BME280;34521;33.042;-96.586;2023-03-30T04:48:23;99950.96;;;21.31;27.64
48718;BME280;34521;33.042;-96.586;2023-03-30T04:50:48;99952.97;;;21.25;27.96
48718;BME280;34521;33.042;-96.586;2023-03-30T04:53:13;99954.65;;;21.24;27.71
48718;BME280;34521;33.042;-96.586;2023-03-30T04:55:37;99949.81;;;21.72;27.46
48718;BME280;34521;33.042;-96.586;2023-03-30T04:58:03;99951.11;;;18.67;31.54
48718;BME280;34521;33.042;-96.586;2023-03-30T05:00:27;99955.15;;;17.33;33.75
48718;BME280;34521;33.042;-96.586;2023-03-30T05:02:52;99955.14;;;17.21;34.37
48718;BME280;34521;33.042;-96.586;2023-03-30T05:05:18;99957.83;;;17.25;35.04
48718;BME280;34521;33.042;-96.586;2023-03-30T05:07:43;99959.29;;;17.22;35.16
48718;BME280;34521;33.042;-96.586;2023-03-30T05:10:08;99951.32;;;19.61;31.42
48718;BME280;34521;33.042;-96.586;2023-03-30T05:12:33;99946.30;;;20.53;29.65
48718;BME280;34521;33.042;-96.586;2023-03-30T05:14:58;99945.95;;;21.03;29.00
48718;BME280;34521;33.042;-96.586;2023-03-30T05:17:23;99944.53;;;21.23;28.45
48718;BME280;34521;33.042;-96.586;2023-03-30T05:19:48;99938.88;;;21.54;28.28
48718;BME280;34521;33.042;-96.586;2023-03-30T05:22:14;99937.00;;;21.54;27.99
48718;BME280;34521;33.042;-96.586;2023-03-30T05:24:38;99939.23;;;21.39;27.87
48718;BME280;34521;33.042;-96.586;2023-03-30T05:27:03;99939.27;;;21.36;27.84
48718;BME280;34521;33.042;-96.586;2023-03-30T05:29:28;99934.15;;;21.18;28.01
48718;BME280;34521;33.042;-96.586;2023-03-30T05:31:53;99945.47;;;21.16;28.06
48718;BME280;34521;33.042;-96.586;2023-03-30T05:34:18;99950.54;;;21.16;28.04
48718;BME280;34521;33.042;-96.586;2023-03-30T05:36:43;99950.08;;;20.98;28.18
48718;BME280;34521;33.042;-96.586;2023-03-30T05:39:08;99954.38;;;21.23;27.92
48718;BME280;34521;33.042;-96.586;2023-03-30T05:41:34;99953.69;;;21.29;27.79
48718;BME280;34521;33.042;-96.586;2023-03-30T05:43:59;99953.98;;;21.05;28.07
48718;BME280;34521;33.042;-96.586;2023-03-30T05:46:24;99955.95;;;21.33;28.04
48718;BME280;34521;33.042;-96.586;2023-03-30T05:48:49;99958.13;;;20.76;28.38
48718;BME280;34521;33.042;-96.586;2023-03-30T05:51:14;99957.90;;;21.51;27.63
48718;BME280;34521;33.042;-96.586;2023-03-30T05:53:39;99959.08;;;21.19;27.88
48718;BME280;34521;33.042;-96.586;2023-03-30T05:56:04;99967.41;;;18.63;31.29
48718;BME280;34521;33.042;-96.586;2023-03-30T05:58:29;99976.66;;;17.49;33.67
48718;BME280;34521;33.042;-96.586;2023-03-30T06:00:57;99981.99;;;17.21;34.55
48718;BME280;34521;33.042;-96.586;2023-03-30T06:03:19;99983.90;;;17.33;34.77
48718;BME280;34521;33.042;-96.586;2023-03-30T06:05:44;99988.87;;;17.39;34.78
48718;BME280;34521;33.042;-96.586;2023-03-30T06:08:10;99979.31;;;19.25;32.16
48718;BME280;34521;33.042;-96.586;2023-03-30T06:10:35;99979.40;;;20.65;30.01
48718;BME280;34521;33.042;-96.586;2023-03-30T06:13:00;99979.29;;;20.73;29.21
48718;BME280;34521;33.042;-96.586;2023-03-30T06:15:24;99975.76;;;20.99;28.86
48718;BME280;34521;33.042;-96.586;2023-03-30T06:17:50;99976.41;;;20.86;28.43
48718;BME280;34521;33.042;-96.586;2023-03-30T06:20:15;99983.23;;;21.35;28.41
48718;BME280;34521;33.042;-96.586;2023-03-30T06:22:40;99978.71;;;21.03;28.18
48718;BME280;34521;33.042;-96.586;2023-03-30T06:25:06;99971.79;;;21.44;28.22
48718;BME280;34521;33.042;-96.586;2023-03-30T06:27:30;99971.76;;;21.13;28.24
48718;BME280;34521;33.042;-96.586;2023-03-30T06:29:55;99970.28;;;21.08;28.04
48718;BME280;34521;33.042;-96.586;2023-03-30T06:32:20;99970.88;;;21.19;27.90
48718;BME280;34521;33.042;-96.586;2023-03-30T06:34:45;99968.35;;;21.16;28.14
48718;BME280;34521;33.042;-96.586;2023-03-30T06:37:10;99972.16;;;20.82;28.24
48718;BME280;34521;33.042;-96.586;2023-03-30T06:39:35;99967.66;;;21.38;27.90
48718;BME280;34521;33.042;-96.586;2023-03-30T06:42:01;99965.30;;;21.05;27.99
48718;BME280;34521;33.042;-96.586;2023-03-30T06:44:26;99965.68;;;20.84;28.23
48718;BME280;34521;33.042;-96.586;2023-03-30T06:46:51;99963.47;;;20.72;28.35
48718;BME280;34521;33.042;-96.586;2023-03-30T06:49:16;99960.84;;;21.17;27.87
48718;BME280;34521;33.042;-96.586;2023-03-30T06:51:41;99960.11;;;21.03;27.97
48718;BME280;34521;33.042;-96.586;2023-03-30T06:54:06;99957.29;;;21.00;28.03
48718;BME280;34521;33.042;-96.586;2023-03-30T06:56:31;99958.92;;;18.01;32.84
48718;BME280;34521;33.042;-96.586;2023-03-30T06:58:56;99963.20;;;17.01;34.37
48718;BME280;34521;33.042;-96.586;2023-03-30T07:01:21;99961.07;;;17.25;34.83
48718;BME280;34521;33.042;-96.586;2023-03-30T07:03:46;99956.64;;;17.00;35.57
48718;BME280;34521;33.042;-96.586;2023-03-30T07:06:11;99955.59;;;18.06;34.01
48718;BME280;34521;33.042;-96.586;2023-03-30T07:08:37;99945.72;;;20.47;30.29
48718;BME280;34521;33.042;-96.586;2023-03-30T07:11:02;99947.59;;;20.16;29.84
48718;BME280;34521;33.042;-96.586;2023-03-30T07:13:27;99939.34;;;20.78;29.08
48718;BME280;34521;33.042;-96.586;2023-03-30T07:15:52;99940.42;;;20.62;28.70
48718;BME280;34521;33.042;-96.586;2023-03-30T07:18:17;99940.65;;;20.81;28.38
48718;BME280;34521;33.042;-96.586;2023-03-30T07:20:43;99941.03;;;21.00;28.43
48718;BME280;34521;33.042;-96.586;2023-03-30T07:23:07;99936.98;;;20.95;28.49
48718;BME280;34521;33.042;-96.586;2023-03-30T07:25:32;99935.54;;;21.19;28.18
48718;BME280;34521;33.042;-96.586;2023-03-30T07:27:57;99937.55;;;20.98;28.35
48718;BME280;34521;33.042;-96.586;2023-03-30T07:30:22;99936.41;;;20.82;28.26
48718;BME280;34521;33.042;-96.586;2023-03-30T07:32:47;99939.84;;;20.89;28.18
48718;BME280;34521;33.042;-96.586;2023-03-30T07:35:12;99935.86;;;21.14;28.15
48718;BME280;34521;33.042;-96.586;2023-03-30T07:37:37;99932.04;;;20.90;28.16
48718;BME280;34521;33.042;-96.586;2023-03-30T07:40:03;99923.88;;;20.70;28.31
48718;BME280;34521;33.042;-96.586;2023-03-30T07:42:28;99920.16;;;21.05;27.92
48718;BME280;34521;33.042;-96.586;2023-03-30T07:44:52;99918.42;;;21.28;27.99
48718;BME280;34521;33.042;-96.586;2023-03-30T07:47:18;99918.54;;;20.87;28.13
48718;BME280;34521;33.042;-96.586;2023-03-30T07:49:43;99918.09;;;21.05;27.92
48718;BME280;34521;33.042;-96.586;2023-03-30T07:52:08;99920.81;;;20.92;28.05
48718;BME280;34521;33.042;-96.586;2023-03-30T07:54:34;99923.97;;;18.50;31.45
48718;BME280;34521;33.042;-96.586;2023-03-30T07:56:59;99929.37;;;17.04;34.19
48718;BME280;34521;33.042;-96.586;2023-03-30T07:59:24;99927.16;;;17.48;34.47
48718;BME280;34521;33.042;-96.586;2023-03-30T08:01:50;99928.55;;;16.91;34.91
48718;BME280;34521;33.042;-96.586;2023-03-30T08:04:14;99931.45;;;17.00;35.28
48718;BME280;34521;33.042;-96.586;2023-03-30T08:06:39;99923.07;;;19.07;31.86
48718;BME280;34521;33.042;-96.586;2023-03-30T08:09:04;99920.82;;;20.62;29.65
48718;BME280;34521;33.042;-96.586;2023-03-30T08:11:29;99916.73;;;20.57;29.01
48718;BME280;34521;33.042;-96.586;2023-03-30T08:13:54;99909.82;;;21.16;28.54
48718;BME280;34521;33.042;-96.586;2023-03-30T08:16:19;99908.92;;;21.21;27.99
48718;BME280;34521;33.042;-96.586;2023-03-30T08:18:44;99907.53;;;20.91;28.20
48718;BME280;34521;33.042;-96.586;2023-03-30T08:21:09;99898.23;;;20.95;28.14
48718;BME280;34521;33.042;-96.586;2023-03-30T08:23:34;99895.15;;;21.07;27.98
48718;BME280;34521;33.042;-96.586;2023-03-30T08:26:00;99896.89;;;20.89;28.13
48718;BME280;34521;33.042;-96.586;2023-03-30T08:28:24;99892.32;;;20.97;28.02
48718;BME280;34521;33.042;-96.586;2023-03-30T08:30:50;99889.91;;;20.92;28.08
48718;BME280;34521;33.042;-96.586;2023-03-30T08:33:15;99888.07;;;21.03;27.95
48718;BME280;34521;33.042;-96.586;2023-03-30T08:35:40;99881.91;;;20.81;28.14
48718;BME280;34521;33.042;-96.586;2023-03-30T08:38:04;99882.19;;;21.13;27.78
48718;BME280;34521;33.042;-96.586;2023-03-30T08:40:30;99876.39;;;21.05;27.88
48718;BME280;34521;33.042;-96.586;2023-03-30T08:43:02;99872.77;;;21.07;27.87
48718;BME280;34521;33.042;-96.586;2023-03-30T08:45:20;99863.68;;;20.82;28.09
48718;BME280;34521;33.042;-96.586;2023-03-30T08:47:48;99854.51;;;21.19;27.95
48718;BME280;34521;33.042;-96.586;2023-03-30T08:50:15;99852.90;;;20.79;28.11
48718;BME280;34521;33.042;-96.586;2023-03-30T08:52:36;99851.92;;;18.98;30.34
48718;BME280;34521;33.042;-96.586;2023-03-30T08:55:01;99855.48;;;18.20;32.35
48718;BME280;34521;33.042;-96.586;2023-03-30T08:57:35;99844.00;;;19.72;30.17
48718;BME280;34521;33.042;-96.586;2023-03-30T08:59:56;99843.93;;;21.39;28.20
48718;BME280;34521;33.042;-96.586;2023-03-30T09:02:18;99843.83;;;20.78;29.11
48718;BME280;34521;33.042;-96.586;2023-03-30T09:04:50;99842.91;;;20.78;29.13
48718;BME280;34521;33.042;-96.586;2023-03-30T09:07:10;99839.20;;;22.23;27.24
48718;BME280;34521;33.042;-96.586;2023-03-30T09:09:32;99834.12;;;22.46;26.86
48718;BME280;34521;33.042;-96.586;2023-03-30T09:12:01;99843.63;;;21.42;27.63
48718;BME280;34521;33.042;-96.586;2023-03-30T09:14:27;99845.01;;;21.61;27.64
48718;BME280;34521;33.042;-96.586;2023-03-30T09:16:51;99841.25;;;21.60;27.39
48718;BME280;34521;33.042;-96.586;2023-03-30T09:19:17;99844.66;;;21.22;27.77
48718;BME280;34521;33.042;-96.586;2023-03-30T09:21:37;99850.62;;;21.26;27.73
48718;BME280;34521;33.042;-96.586;2023-03-30T09:24:11;99850.01;;;21.96;27.27
48718;BME280;34521;33.042;-96.586;2023-03-30T09:26:31;99842.95;;;21.63;27.53
48718;BME280;34521;33.042;-96.586;2023-03-30T09:28:56;99840.31;;;21.37;27.81
48718;BME280;34521;33.042;-96.586;2023-03-30T09:31:19;99843.13;;;21.45;27.72
48718;BME280;34521;33.042;-96.586;2023-03-30T09:33:45;99838.38;;;21.41;27.73
48718;BME280;34521;33.042;-96.586;2023-03-30T09:36:13;99834.43;;;21.66;27.45
48718;BME280;34521;33.042;-96.586;2023-03-30T09:38:32;99837.23;;;21.21;27.88
48718;BME280;34521;33.042;-96.586;2023-03-30T09:41:15;99836.50;;;21.21;27.89
48718;BME280;34521;33.042;-96.586;2023-03-30T09:43:31;99833.46;;;21.09;27.98
48718;BME280;34521;33.042;-96.586;2023-03-30T09:45:47;99832.46;;;20.84;28.21
48718;BME280;34521;33.042;-96.586;2023-03-30T09:48:15;99828.42;;;21.17;28.17
48718;BME280;34521;33.042;-96.586;2023-03-30T09:50:39;99834.43;;;21.17;27.89
48718;BME280;34521;33.042;-96.586;2023-03-30T09:53:04;99840.75;;;18.14;32.14
48718;BME280;34521;33.042;-96.586;2023-03-30T09:55:30;99844.57;;;17.14;34.62
48718;BME280;34521;33.042;-96.586;2023-03-30T09:57:53;99851.20;;;17.00;35.26
48718;BME280;34521;33.042;-96.586;2023-03-30T10:00:23;99848.41;;;17.46;35.04
48718;BME280;34521;33.042;-96.586;2023-03-30T10:05:16;99831.12;;;19.76;31.16
48718;BME280;34521;33.042;-96.586;2023-03-30T10:07:35;99833.88;;;20.26;29.86
48718;BME280;34521;33.042;-96.586;2023-03-30T10:09:59;99830.51;;;20.59;29.13
48718;BME280;34521;33.042;-96.586;2023-03-30T10:12:24;99830.13;;;20.99;28.85
48718;BME280;34521;33.042;-96.586;2023-03-30T10:14:53;99832.45;;;20.94;28.86
48718;BME280;34521;33.042;-96.586;2023-03-30T10:17:17;99830.98;;;21.07;28.41
48718;BME280;34521;33.042;-96.586;2023-03-30T10:19:41;99831.61;;;20.58;28.67
48718;BME280;34521;33.042;-96.586;2023-03-30T10:22:03;99825.90;;;20.68;28.54
48718;BME280;34521;33.042;-96.586;2023-03-30T10:24:29;99825.33;;;20.67;28.53
48718;BME280;34521;33.042;-96.586;2023-03-30T10:26:56;99825.41;;;20.81;28.39
48718;BME280;34521;33.042;-96.586;2023-03-30T10:29:21;99824.11;;;20.93;28.51
48718;BME280;34521;33.042;-96.586;2023-03-30T10:31:45;99822.86;;;21.07;28.30
48718;BME280;34521;33.042;-96.586;2023-03-30T10:34:16;99817.75;;;20.65;28.51
48718;BME280;34521;33.042;-96.586;2023-03-30T10:36:37;99816.71;;;20.86;28.25
48718;BME280;34521;33.042;-96.586;2023-03-30T10:39:06;99817.53;;;20.91;28.17
48718;BME280;34521;33.042;-96.586;2023-03-30T10:41:24;99820.90;;;20.90;28.18
48718;BME280;34521;33.042;-96.586;2023-03-30T10:43:50;99822.26;;;20.79;28.59
48718;BME280;34521;33.042;-96.586;2023-03-30T10:46:15;99825.44;;;21.10;28.26
48718;BME280;34521;33.042;-96.586;2023-03-30T10:48:46;99821.14;;;20.61;28.49
48718;BME280;34521;33.042;-96.586;2023-03-30T10:51:09;99824.58;;;18.25;32.14
48718;BME280;34521;33.042;-96.586;2023-03-30T10:53:38;99821.07;;;17.50;33.99
48718;BME280;34521;33.042;-96.586;2023-03-30T10:55:59;99821.79;;;19.35;31.90
48718;BME280;34521;33.042;-96.586;2023-03-30T10:58:27;99824.97;;;20.90;29.35
48718;BME280;34521;33.042;-96.586;2023-03-30T11:00:53;99814.25;;;21.44;28.41
48718;BME280;34521;33.042;-96.586;2023-03-30T11:03:13;99813.53;;;21.71;28.35
48718;BME280;34521;33.042;-96.586;2023-03-30T11:05:37;99808.16;;;22.10;27.45
48718;BME280;34521;33.042;-96.586;2023-03-30T11:08:03;99817.47;;;22.11;27.31
48718;BME280;34521;33.042;-96.586;2023-03-30T11:10:26;99815.65;;;22.29;27.10
48718;BME280;34521;33.042;-96.586;2023-03-30T11:12:53;99811.97;;;22.07;27.26
48718;BME280;34521;33.042;-96.586;2023-03-30T11:15:19;99814.62;;;21.89;27.40
48718;BME280;34521;33.042;-96.586;2023-03-30T11:17:47;99816.53;;;21.99;27.34
48718;BME280;34521;33.042;-96.586;2023-03-30T11:22:35;99817.62;;;21.67;27.68
48718;BME280;34521;33.042;-96.586;2023-03-30T11:24:55;99818.59;;;21.91;27.74
48718;BME280;34521;33.042;-96.586;2023-03-30T11:27:24;99822.65;;;21.33;28.09
48718;BME280;34521;33.042;-96.586;2023-03-30T11:29:47;99820.92;;;21.33;28.09
48718;BME280;34521;33.042;-96.586;2023-03-30T11:32:23;99812.01;;;21.23;28.22
48718;BME280;34521;33.042;-96.586;2023-03-30T11:34:42;99808.25;;;21.39;28.31
48718;BME280;34521;33.042;-96.586;2023-03-30T11:37:05;99811.30;;;21.07;28.34
48718;BME280;34521;33.042;-96.586;2023-03-30T11:39:29;99813.34;;;21.12;28.27
48718;BME280;34521;33.042;-96.586;2023-03-30T11:41:56;99808.19;;;21.19;28.13
48718;BME280;34521;33.042;-96.586;2023-03-30T11:44:15;99803.24;;;20.80;28.31
48718;BME280;34521;33.042;-96.586;2023-03-30T11:46:46;99807.49;;;20.81;28.52
48718;BME280;34521;33.042;-96.586;2023-03-30T11:49:20;99807.52;;;19.67;29.71
48718;BME280;34521;33.042;-96.586;2023-03-30T11:51:42;99816.56;;;17.86;33.38
48718;BME280;34521;33.042;-96.586;2023-03-30T11:54:01;99822.78;;;17.37;34.59
48718;BME280;34521;33.042;-96.586;2023-03-30T11:56:26;99817.44;;;17.15;35.31
48718;BME280;34521;33.042;-96.586;2023-03-30T11:58:50;99830.83;;;16.86;35.84
48718;BME280;34521;33.042;-96.586;2023-03-30T12:01:22;99824.95;;;18.24;34.27
48718;BME280;34521;33.042;-96.586;2023-03-30T12:03:39;99818.52;;;19.85;31.00
48718;BME280;34521;33.042;-96.586;2023-03-30T12:06:13;99817.80;;;20.70;30.14
48718;BME280;34521;33.042;-96.586;2023-03-30T12:08:41;99821.98;;;20.68;29.56
48718;BME280;34521;33.042;-96.586;2023-03-30T12:10:58;99817.11;;;21.00;29.14
48718;BME280;34521;33.042;-96.586;2023-03-30T12:13:18;99810.78;;;21.33;28.77
48718;BME280;34521;33.042;-96.586;2023-03-30T12:15:46;99804.70;;;21.03;28.57
48718;BME280;34521;33.042;-96.586;2023-03-30T12:18:14;99804.38;;;20.62;29.07
48718;BME280;34521;33.042;-96.586;2023-03-30T12:20:36;99813.45;;;20.47;29.26
48718;BME280;34521;33.042;-96.586;2023-03-30T12:23:01;99817.05;;;20.72;28.92
48718;BME280;34521;33.042;-96.586;2023-03-30T12:25:29;99809.69;;;20.80;28.83
48718;BME280;34521;33.042;-96.586;2023-03-30T12:27:59;99813.21;;;21.00;28.65
48718;BME280;34521;33.042;-96.586;2023-03-30T12:30:18;99816.52;;;20.83;29.04
48718;BME280;34521;33.042;-96.586;2023-03-30T12:32:36;99828.35;;;21.01;28.86
48718;BME280;34521;33.042;-96.586;2023-03-30T12:37:31;99830.38;;;20.69;28.99
48718;BME280;34521;33.042;-96.586;2023-03-30T12:39:54;99834.34;;;20.55;29.17